createdAt,value
2019-02-12T00:00:48.675Z,9.13
2019-02-12T00:03:20.754Z,5.57
2019-02-12T00:05:55.703Z,4.53
2019-02-12T00:08:26.105Z,7.97
2019-02-12T00:11:00.879Z,4.83
2019-02-12T00:13:42.650Z,3.57
2019-02-12T00:16:14.282Z,6.40
2019-02-12T00:18:48.098Z,9.13
2019-02-12T00:21:19.472Z,6.37
2019-02-12T00:23:52.141Z,6.50
2019-02-12T00:26:23.910Z,7.53
2019-02-12T00:28:57.018Z,6.50
2019-02-12T00:32:03.331Z,6.47
2019-02-12T00:34:33.251Z,7.63
2019-02-12T00:37:05.055Z,5.87
2019-02-12T00:39:38.436Z,4.43
2019-02-12T00:42:12.968Z,7.43
2019-02-12T00:44:47.796Z,8.00
2019-02-12T00:47:18.651Z,4.03
2019-02-12T00:49:48.437Z,6.20
2019-02-12T00:52:32.714Z,4.77
2019-02-12T00:55:04.893Z,5.10
2019-02-12T00:57:34.936Z,8.60
2019-02-12T01:00:04.799Z,7.50
2019-02-12T01:03:07.419Z,9.50
2019-02-12T01:05:36.725Z,10.43
2019-02-12T01:08:06.353Z,8.27
2019-02-12T01:10:43.513Z,9.40
2019-02-12T01:13:12.504Z,9.10
2019-02-12T01:15:41.395Z,8.83
2019-02-12T01:18:11.022Z,10.63
2019-02-12T01:20:40.307Z,8.57
2019-02-12T01:23:11.565Z,5.13
2019-02-12T01:25:41.241Z,10.03
2019-02-12T01:28:11.166Z,8.10
2019-02-12T01:30:43.851Z,5.63
2019-02-12T01:33:17.357Z,7.27
2019-02-12T01:35:49.627Z,6.53
2019-02-12T01:38:20.523Z,6.27
2019-02-12T01:40:55.750Z,8.90
2019-02-12T01:43:28.033Z,4.77
2019-02-12T01:49:43.370Z,5.23
2019-02-12T01:52:34.595Z,6.80
2019-02-12T01:55:05.222Z,5.93
2019-02-12T01:57:37.202Z,4.10
2019-02-12T02:00:09.298Z,7.83
2019-02-12T02:02:39.691Z,7.27
2019-02-12T02:05:10.839Z,13.10
2019-02-12T02:07:41.490Z,8.70
2019-02-12T02:10:16.450Z,9.33
2019-02-12T02:12:58.756Z,4.40
2019-02-12T02:15:29.560Z,7.87
2019-02-12T02:18:03.212Z,8.00
2019-02-12T02:20:33.698Z,3.87
2019-02-12T02:23:05.834Z,7.80
2019-02-12T02:25:41.095Z,7.37
2019-02-12T02:28:12.617Z,1.90
2019-02-12T02:30:42.330Z,8.03
2019-02-12T02:33:14.168Z,9.33
2019-02-12T02:35:43.742Z,8.27
2019-02-12T02:38:13.854Z,7.60
2019-02-12T02:40:47.624Z,9.30
2019-02-12T02:43:19.684Z,6.77
2019-02-12T02:45:52.977Z,9.33
2019-02-12T02:48:24.722Z,5.23
2019-02-12T02:51:04.409Z,7.53
2019-02-12T02:53:34.091Z,8.77
2019-02-12T02:56:12.337Z,10.70
2019-02-12T02:58:42.283Z,5.43
2019-02-12T03:01:22.615Z,6.67
2019-02-12T03:03:54.087Z,7.97
2019-02-12T03:06:25.938Z,8.50
2019-02-12T03:09:00.471Z,6.10
2019-02-12T03:11:34.064Z,10.57
2019-02-12T03:14:04.989Z,7.03
2019-02-12T03:16:36.055Z,9.40
2019-02-12T03:19:07.048Z,5.83
2019-02-12T03:21:37.515Z,10.33
2019-02-12T03:24:16.786Z,6.33
2019-02-12T03:26:52.610Z,9.87
2019-02-12T03:29:25.075Z,7.53
2019-02-12T03:32:01.824Z,8.40
2019-02-12T03:34:50.880Z,6.53
2019-02-12T03:37:19.986Z,9.77
2019-02-12T03:39:50.030Z,9.13
2019-02-12T03:42:21.419Z,6.13
2019-02-12T03:44:54.401Z,5.00
2019-02-12T03:47:24.052Z,8.10
2019-02-12T03:49:53.347Z,9.17
2019-02-12T03:55:58.840Z,5.17
2019-02-12T03:58:28.206Z,6.97
2019-02-12T04:01:00.780Z,10.30
2019-02-12T04:03:31.321Z,7.53
2019-02-12T04:06:02.673Z,6.87
2019-02-12T04:08:32.445Z,5.67
2019-02-12T04:11:02.483Z,7.00
2019-02-12T04:13:33.470Z,6.97
2019-02-12T04:16:05.530Z,9.50
2019-02-12T04:18:40.437Z,5.53
2019-02-12T04:21:13.513Z,7.63
2019-02-12T04:23:43.795Z,4.17
2019-02-12T04:26:15.943Z,6.67
2019-02-12T04:28:47.270Z,7.17
2019-02-12T04:31:16.872Z,8.93
2019-02-12T04:33:48.495Z,5.63
2019-02-12T04:36:18.877Z,8.80
2019-02-12T04:39:16.992Z,8.20
2019-02-12T04:41:54.632Z,7.67
2019-02-12T04:44:34.914Z,3.07
2019-02-12T04:50:45.855Z,5.33
2019-02-12T04:56:53.154Z,5.43
2019-02-12T04:59:43.586Z,2.00
2019-02-12T05:02:31.502Z,4.20
2019-02-12T05:05:37.049Z,3.73
2019-02-12T05:08:18.661Z,3.37
2019-02-12T05:15:03.865Z,7.93
2019-02-12T05:17:34.971Z,5.73
2019-02-12T05:20:05.100Z,7.30
2019-02-12T05:22:52.955Z,6.37
2019-02-12T05:25:27.205Z,4.67
2019-02-12T05:28:06.474Z,1.87
2019-02-12T05:30:42.000Z,3.03
2019-02-12T05:33:11.811Z,5.57
2019-02-12T05:35:42.003Z,3.00
2019-02-12T05:38:13.751Z,5.37
2019-02-12T05:40:46.638Z,3.53
2019-02-12T05:43:18.683Z,5.30
2019-02-12T05:45:51.719Z,5.43
2019-02-12T05:48:22.190Z,4.50
2019-02-12T05:51:22.244Z,4.87
2019-02-12T05:53:56.742Z,2.43
2019-02-12T05:56:28.400Z,3.27
2019-02-12T05:59:03.673Z,3.43
2019-02-12T06:02:12.418Z,4.30
2019-02-12T06:04:55.108Z,1.90
2019-02-12T06:07:40.686Z,3.10
2019-02-12T06:10:20.647Z,2.93
2019-02-12T06:13:12.802Z,3.20
2019-02-12T06:15:48.146Z,4.60
2019-02-12T06:18:29.616Z,3.30
2019-02-12T06:21:03.657Z,4.03
2019-02-12T06:23:39.136Z,1.23
2019-02-12T06:26:11.881Z,1.20
2019-02-12T06:29:03.512Z,2.90
2019-02-12T06:31:39.103Z,3.30
2019-02-12T06:34:11.948Z,2.13
2019-02-12T06:36:44.862Z,2.80
2019-02-12T06:39:24.709Z,1.73
2019-02-12T06:42:00.827Z,2.67
2019-02-12T06:44:32.355Z,2.07
2019-02-12T06:47:05.940Z,3.93
2019-02-12T06:49:39.105Z,2.57
2019-02-12T06:52:23.277Z,2.43
2019-02-12T06:54:56.607Z,1.40
2019-02-12T06:57:30.409Z,2.63
2019-02-12T07:00:06.298Z,2.30
2019-02-12T07:03:13.465Z,1.33
2019-02-12T07:06:33.280Z,1.83
2019-02-12T07:10:05.379Z,1.73
2019-02-12T07:13:39.383Z,3.90
2019-02-12T07:17:08.965Z,2.40
2019-02-12T07:20:23.035Z,2.10
2019-02-12T07:23:55.199Z,4.10
2019-02-12T07:27:24.221Z,2.77
2019-02-12T07:30:54.234Z,2.77
2019-02-12T07:34:08.652Z,4.03
2019-02-12T07:37:21.926Z,3.70
2019-02-12T07:40:43.224Z,1.50
2019-02-12T07:44:01.933Z,4.83
2019-02-12T07:47:27.345Z,5.10
2019-02-12T07:50:35.058Z,1.50
2019-02-12T07:53:51.808Z,3.63
2019-02-12T07:56:35.075Z,3.03
2019-02-12T07:59:22.749Z,2.83
2019-02-12T08:02:28.149Z,4.17
2019-02-12T08:05:26.366Z,2.53
2019-02-12T08:08:37.351Z,3.87
2019-02-12T08:11:37.005Z,3.50
2019-02-12T08:14:46.669Z,3.50
2019-02-12T08:17:42.175Z,2.27
2019-02-12T08:20:46.425Z,2.90
2019-02-12T08:24:05.005Z,3.97
2019-02-12T08:27:02.472Z,1.80
2019-02-12T08:30:06.422Z,3.00
2019-02-12T08:33:25.514Z,1.70
2019-02-12T08:35:59.775Z,3.70
2019-02-12T08:38:51.733Z,4.97
2019-02-12T08:41:58.382Z,3.30
2019-02-12T08:44:52.121Z,3.23
2019-02-12T08:47:45.557Z,3.17
2019-02-12T08:51:05.569Z,7.10
2019-02-12T08:54:11.358Z,4.67
2019-02-12T08:57:07.305Z,2.53
2019-02-12T09:00:25.627Z,1.30
2019-02-12T09:03:42.733Z,2.33
2019-02-12T09:06:52.991Z,2.83
2019-02-12T09:09:59.189Z,1.77
2019-02-12T09:12:40.922Z,3.47
2019-02-12T09:15:39.092Z,2.97
2019-02-12T09:18:29.149Z,3.50
2019-02-12T09:21:41.878Z,1.47
2019-02-12T09:24:27.853Z,1.23
2019-02-12T09:27:30.667Z,0.97
2019-02-12T09:30:29.170Z,1.63
2019-02-12T09:33:23.988Z,3.67
2019-02-12T09:36:04.209Z,1.77
2019-02-12T09:39:26.385Z,2.07
2019-02-12T09:42:37.985Z,2.97
2019-02-12T09:45:33.749Z,2.03
2019-02-12T09:48:32.039Z,1.03
2019-02-12T09:51:30.950Z,1.57
2019-02-12T09:54:30.769Z,1.90
2019-02-12T09:57:24.662Z,3.40
2019-02-12T10:00:32.520Z,2.67
2019-02-12T10:03:37.473Z,3.00
2019-02-12T10:06:45.266Z,4.00
2019-02-12T10:10:10.981Z,4.00
2019-02-12T10:12:49.786Z,2.00
2019-02-12T10:16:02.849Z,1.73
2019-02-12T10:19:23.094Z,1.37
2019-02-12T10:22:21.991Z,4.53
2019-02-12T10:25:33.792Z,3.17
2019-02-12T10:28:55.145Z,2.67
2019-02-12T10:31:46.705Z,1.87
2019-02-12T10:34:15.909Z,2.63
2019-02-12T10:36:46.859Z,3.20
2019-02-12T10:39:16.183Z,3.13
2019-02-12T10:42:04.837Z,2.83
2019-02-12T10:44:35.239Z,3.60
2019-02-12T10:47:09.225Z,4.53
2019-02-12T10:49:41.737Z,2.37
2019-02-12T10:52:11.619Z,4.60
2019-02-12T10:54:41.688Z,4.37
2019-02-12T10:57:16.757Z,1.23
2019-02-12T10:59:45.713Z,2.37
2019-02-12T11:02:16.478Z,5.10
2019-02-12T11:04:46.018Z,2.00
2019-02-12T11:07:18.045Z,2.50
2019-02-12T11:09:47.053Z,2.73
2019-02-12T11:12:59.184Z,2.43
2019-02-12T11:15:30.224Z,1.20
2019-02-12T11:18:00.328Z,0.97
2019-02-12T11:20:30.531Z,1.83
2019-02-12T11:23:06.424Z,3.57
2019-02-12T11:25:37.833Z,2.77
2019-02-12T11:28:10.231Z,3.07
2019-02-12T11:30:39.217Z,2.00
2019-02-12T11:33:12.286Z,1.93
2019-02-12T11:35:44.761Z,4.93
2019-02-12T11:38:18.574Z,3.40
2019-02-12T11:40:51.626Z,3.17
2019-02-12T11:43:20.541Z,3.53
2019-02-12T11:45:53.549Z,4.53
2019-02-12T11:48:22.718Z,1.70
2019-02-12T11:50:53.372Z,2.23
2019-02-12T11:53:29.136Z,1.53
2019-02-12T11:56:03.909Z,4.17
2019-02-12T11:58:33.656Z,3.20
2019-02-12T12:01:06.477Z,1.60
2019-02-12T12:03:35.466Z,2.10
2019-02-12T12:06:10.827Z,2.23
2019-02-12T12:08:39.802Z,3.90
2019-02-12T12:11:09.845Z,3.37
2019-02-12T12:13:42.867Z,2.50
2019-02-12T12:16:12.137Z,3.60
2019-02-12T12:18:41.344Z,3.37
2019-02-12T12:21:12.248Z,3.80
2019-02-12T12:23:41.493Z,1.97
2019-02-12T12:26:13.467Z,2.30
2019-02-12T12:28:43.394Z,1.27
2019-02-12T12:31:12.459Z,3.60
2019-02-12T12:33:42.403Z,1.30
2019-02-12T12:36:12.406Z,3.20
2019-02-12T12:38:41.263Z,3.20
2019-02-12T12:41:10.117Z,1.77
2019-02-12T12:44:08.422Z,3.17
2019-02-12T12:46:37.740Z,3.10
2019-02-12T12:49:06.631Z,3.93
2019-02-12T12:51:36.212Z,3.47
2019-02-12T12:54:05.248Z,1.93
2019-02-12T12:56:37.705Z,2.57
2019-02-12T12:59:06.728Z,3.53
2019-02-12T13:01:36.709Z,5.10
2019-02-12T13:04:05.737Z,5.03
2019-02-12T13:06:37.493Z,3.30
2019-02-12T13:09:27.487Z,3.50
2019-02-12T13:12:01.874Z,2.60
2019-02-12T13:14:34.438Z,3.53
2019-02-12T13:17:05.040Z,4.80
2019-02-12T13:19:44.414Z,2.57
2019-02-12T13:22:20.290Z,4.47
2019-02-12T13:24:51.827Z,3.60
2019-02-12T13:27:23.881Z,2.33
2019-02-12T13:29:55.390Z,7.27
2019-02-12T13:32:24.598Z,6.00
2019-02-12T13:34:53.629Z,3.90
2019-02-12T13:37:22.521Z,5.67
2019-02-12T13:39:52.652Z,2.80
2019-02-12T13:42:22.225Z,6.03
2019-02-12T13:44:51.145Z,1.70
2019-02-12T13:47:23.639Z,3.70
2019-02-12T13:49:52.620Z,2.90
2019-02-12T13:52:23.817Z,5.20
2019-02-12T13:54:52.801Z,3.33
2019-02-12T13:57:45.590Z,4.43
2019-02-12T14:00:16.426Z,4.17
2019-02-12T14:03:29.346Z,3.50
2019-02-12T14:06:04.586Z,2.90
2019-02-12T14:08:36.425Z,3.27
2019-02-12T14:11:08.375Z,7.70
2019-02-12T14:13:38.581Z,4.20
2019-02-12T14:16:10.742Z,3.67
2019-02-12T14:18:41.043Z,5.17
2019-02-12T14:21:11.810Z,4.83
2019-02-12T14:23:40.814Z,3.80
2019-02-12T14:26:11.129Z,14.23
2019-02-12T14:28:41.984Z,2.73
2019-02-12T14:31:11.017Z,3.43
2019-02-12T14:33:41.194Z,4.23
2019-02-12T14:36:14.041Z,3.60
2019-02-12T14:38:45.796Z,4.90
2019-02-12T14:41:18.509Z,4.97
2019-02-12T14:43:47.613Z,4.20
2019-02-12T14:46:16.641Z,5.23
2019-02-12T14:48:46.283Z,3.23
2019-02-12T14:51:19.872Z,7.77
2019-02-12T14:53:48.858Z,3.50
2019-02-12T14:56:17.802Z,5.40
2019-02-12T14:58:46.722Z,3.60
2019-02-12T15:01:22.263Z,5.13
2019-02-12T15:03:51.207Z,6.33
2019-02-12T15:06:20.278Z,5.40
2019-02-12T15:08:54.791Z,5.27
2019-02-12T15:11:33.023Z,6.87
2019-02-12T15:14:03.823Z,4.07
2019-02-12T15:16:36.459Z,3.20
2019-02-12T15:19:10.385Z,3.73
2019-02-12T15:21:49.715Z,5.47
2019-02-12T15:24:18.661Z,3.93
2019-02-12T15:26:47.617Z,4.57
2019-02-12T15:29:16.675Z,2.77
2019-02-12T15:31:49.905Z,3.67
2019-02-12T15:34:20.328Z,2.97
2019-02-12T15:36:49.313Z,4.67
2019-02-12T15:39:21.381Z,4.90
2019-02-12T15:41:50.493Z,5.20
2019-02-12T15:44:24.410Z,7.23
2019-02-12T15:46:54.858Z,4.57
2019-02-12T15:49:37.185Z,3.60
2019-02-12T15:52:08.615Z,4.67
2019-02-12T15:54:40.496Z,3.33
2019-02-12T15:57:12.825Z,6.07
2019-02-12T15:59:42.066Z,2.23
2019-02-12T16:02:13.708Z,6.27
2019-02-12T16:04:44.009Z,5.10
2019-02-12T16:07:17.986Z,3.43
2019-02-12T16:09:52.893Z,3.67
2019-02-12T16:12:56.489Z,2.80
2019-02-12T16:15:28.477Z,3.60
2019-02-12T16:18:00.295Z,4.17
2019-02-12T16:20:41.214Z,4.30
2019-02-12T16:23:24.525Z,6.77
2019-02-12T16:26:06.456Z,4.07
2019-02-12T16:28:36.161Z,4.07
2019-02-12T16:31:25.448Z,2.33
2019-02-12T16:33:59.214Z,3.40
2019-02-12T16:36:28.845Z,3.53
2019-02-12T16:38:57.733Z,4.53
2019-02-12T16:41:31.948Z,5.33
2019-02-12T16:44:02.758Z,3.70
2019-02-12T16:47:14.387Z,6.03
2019-02-12T16:49:44.524Z,4.60
2019-02-12T16:52:41.531Z,6.03
2019-02-12T16:55:35.335Z,5.70
2019-02-12T16:58:05.436Z,3.37
2019-02-12T17:00:34.690Z,5.23
2019-02-12T17:03:04.256Z,2.30
2019-02-12T17:05:33.789Z,4.10
2019-02-12T17:08:02.953Z,3.07
2019-02-12T17:10:37.543Z,5.57
2019-02-12T17:13:17.151Z,2.40
2019-02-12T17:15:50.147Z,3.03
2019-02-12T17:18:19.235Z,2.67
2019-02-12T17:20:54.837Z,3.33
2019-02-12T17:23:25.881Z,1.70
2019-02-12T17:25:57.313Z,4.73
2019-02-12T17:28:30.481Z,2.83
2019-02-12T17:31:21.258Z,2.60
2019-02-12T17:33:52.245Z,2.60
2019-02-12T17:36:25.101Z,6.27
2019-02-12T17:38:55.915Z,3.77
2019-02-12T17:41:31.416Z,3.77
2019-02-12T17:44:02.825Z,4.30
2019-02-12T17:46:35.639Z,3.90
2019-02-12T17:49:07.826Z,7.33
2019-02-12T17:51:47.890Z,4.87
2019-02-12T17:54:28.200Z,3.67
2019-02-12T17:59:50.541Z,3.00
2019-02-12T18:02:22.040Z,3.33
2019-02-12T18:04:52.775Z,2.93
2019-02-12T18:07:23.658Z,5.20
2019-02-12T18:09:53.293Z,4.17
2019-02-12T18:12:31.215Z,3.73
2019-02-12T18:15:02.433Z,4.30
2019-02-12T18:17:33.553Z,13.83
2019-02-12T18:20:09.344Z,5.63
2019-02-12T18:22:43.733Z,4.07
2019-02-12T18:25:22.672Z,4.90
2019-02-12T18:27:57.138Z,5.93
2019-02-12T18:30:27.713Z,5.70
2019-02-12T18:32:57.522Z,5.73
2019-02-12T18:35:26.534Z,5.80
2019-02-12T18:37:56.502Z,4.00
2019-02-12T18:40:26.665Z,5.30
2019-02-12T18:42:58.929Z,5.40
2019-02-12T18:45:29.677Z,5.30
2019-02-12T18:48:02.821Z,5.33
2019-02-12T18:50:30.475Z,4.33
2019-02-12T18:53:01.025Z,6.63
2019-02-12T18:55:32.700Z,8.80
2019-02-12T18:58:04.497Z,7.00
2019-02-12T19:00:34.489Z,4.07
2019-02-12T19:03:04.895Z,9.17
2019-02-12T19:05:34.046Z,5.07
2019-02-12T19:08:04.511Z,5.57
2019-02-12T19:10:37.281Z,7.00
2019-02-12T19:13:06.259Z,6.30
2019-02-12T19:15:35.197Z,11.87
2019-02-12T19:18:10.220Z,18.50
2019-02-12T19:20:44.476Z,9.17
2019-02-12T19:23:21.758Z,6.83
2019-02-12T19:25:52.586Z,4.17
2019-02-12T19:28:29.615Z,3.87
2019-02-12T19:31:02.702Z,5.93
2019-02-12T19:33:31.614Z,5.50
2019-02-12T19:36:02.842Z,6.80
2019-02-12T19:38:36.381Z,5.40
2019-02-12T19:41:12.752Z,4.07
2019-02-12T19:43:41.625Z,5.57
2019-02-12T19:46:12.211Z,4.67
2019-02-12T19:48:42.501Z,8.07
2019-02-12T19:51:13.553Z,7.10
2019-02-12T19:53:48.454Z,6.73
2019-02-12T19:56:28.602Z,5.23
2019-02-12T19:59:16.803Z,6.53
2019-02-12T20:02:11.247Z,5.30
2019-02-12T20:04:46.880Z,6.93
2019-02-12T20:07:20.124Z,5.67
2019-02-12T20:13:49.520Z,5.83
2019-02-12T20:16:19.148Z,9.27
2019-02-12T20:18:53.941Z,5.13
2019-02-12T20:21:32.736Z,5.00
2019-02-12T20:24:14.975Z,7.63
2019-02-12T20:26:49.529Z,8.50
2019-02-12T20:29:22.876Z,6.73
2019-02-12T20:32:00.480Z,8.50
2019-02-12T20:34:32.711Z,7.53
2019-02-12T20:37:06.342Z,8.37
2019-02-12T20:39:46.875Z,7.50
2019-02-12T20:42:18.095Z,19.90
2019-02-12T20:44:48.930Z,7.07
2019-02-12T20:47:19.396Z,8.30
2019-02-12T20:49:49.630Z,3.77
2019-02-12T20:52:19.199Z,12.07
2019-02-12T20:54:48.452Z,9.07
2019-02-12T20:57:17.836Z,5.77
2019-02-12T20:59:50.354Z,7.27
2019-02-12T21:02:19.326Z,7.93
2019-02-12T21:04:50.117Z,6.03
2019-02-12T21:07:27.701Z,6.93
2019-02-12T21:09:56.697Z,8.57
2019-02-12T21:12:28.491Z,8.57
2019-02-12T21:15:00.444Z,7.43
2019-02-12T21:17:35.029Z,9.00
2019-02-12T21:20:05.643Z,7.43
2019-02-12T21:22:42.138Z,6.00
2019-02-12T21:25:16.187Z,7.60
2019-02-12T21:30:40.411Z,8.10
2019-02-12T21:33:12.969Z,8.67
2019-02-12T21:35:43.750Z,7.30
2019-02-12T21:38:23.587Z,6.53
2019-02-12T21:41:11.279Z,7.90
2019-02-12T21:43:40.637Z,8.30
2019-02-12T21:46:10.035Z,4.93
2019-02-12T21:48:42.806Z,10.70
2019-02-12T21:51:13.455Z,8.33
2019-02-12T21:53:46.239Z,7.70
2019-02-12T21:56:32.998Z,8.77
2019-02-12T21:59:04.276Z,7.30
2019-02-12T22:01:34.926Z,8.10
2019-02-12T22:04:05.406Z,10.07
2019-02-12T22:06:34.319Z,8.37
2019-02-12T22:09:04.787Z,11.47
2019-02-12T22:11:36.273Z,9.10
2019-02-12T22:14:10.545Z,8.93
2019-02-12T22:16:39.510Z,7.80
2019-02-12T22:19:16.781Z,10.77
2019-02-12T22:21:46.256Z,9.63
2019-02-12T22:24:17.422Z,10.63
2019-02-12T22:26:46.393Z,8.00
2019-02-12T22:29:15.641Z,8.83
2019-02-12T22:31:48.894Z,8.13
2019-02-12T22:34:18.212Z,8.63
2019-02-12T22:36:47.257Z,11.40
2019-02-12T22:39:16.419Z,12.23
2019-02-12T22:41:45.600Z,9.17
2019-02-12T22:44:14.702Z,9.30
2019-02-12T22:46:43.738Z,12.90
2019-02-12T22:49:15.335Z,10.47
2019-02-12T22:51:46.617Z,16.23
2019-02-12T22:54:15.582Z,8.13
2019-02-12T22:56:47.479Z,14.07
2019-02-12T22:59:16.630Z,15.33
2019-02-12T23:01:46.337Z,15.17
2019-02-12T23:04:16.859Z,15.77
2019-02-12T23:06:47.647Z,16.17
2019-02-12T23:09:19.958Z,20.07
2019-02-12T23:11:51.314Z,20.07
2019-02-12T23:14:20.577Z,19.20
2019-02-12T23:16:50.081Z,24.30
2019-02-12T23:19:18.997Z,23.03
2019-02-12T23:21:48.358Z,19.33
2019-02-12T23:24:18.550Z,25.20
2019-02-12T23:26:47.866Z,29.57
2019-02-12T23:29:18.184Z,33.07
2019-02-12T23:32:06.471Z,26.93
2019-02-12T23:34:35.500Z,32.97
2019-02-12T23:37:04.808Z,28.10
2019-02-12T23:39:33.716Z,31.13
2019-02-12T23:42:02.783Z,29.97
2019-02-12T23:44:31.865Z,33.70
2019-02-12T23:47:01.197Z,31.00
2019-02-12T23:49:32.535Z,32.63
2019-02-12T23:52:03.453Z,33.93
2019-02-12T23:54:32.674Z,31.17
2019-02-12T23:57:01.548Z,28.83
2019-02-12T23:59:30.942Z,29.77
